Time;durP1;ratioP1;P1;durP2;ratioP2;P2;SDS_P1;SDS_P2;PMS_P1;PMS_P2;Temp;Humidity;BMP_temperature;BMP_pressure;BME280_temperature;BME280_humidity;BME280_pressure;Samples;Min_cycle;Max_cycle;Signal;HPM_P1;HPM_P2
2021/06/17 00:01:22;;;;;;;2.33;1.80;;;22.20;69.80;;;;;;5096495;28;20134;-72
2021/06/17 00:03:48;;;;;;;2.45;2.05;;;22.10;69.50;;;;;;5095922;28;20374;-72
2021/06/17 00:06:14;;;;;;;3.20;2.15;;;22.20;69.50;;;;;;5096087;28;20128;-72
2021/06/17 00:08:40;;;;;;;3.13;2.05;;;22.10;69.50;;;;;;5096844;28;20346;-72
2021/06/17 00:11:06;;;;;;;2.85;2.20;;;22.20;69.50;;;;;;5095952;28;20050;-72
2021/06/17 00:13:36;;;;;;;3.78;2.13;;;22.20;69.50;;;;;;5096178;28;20051;-71
2021/06/17 00:16:04;;;;;;;3.10;1.80;;;22.20;69.50;;;;;;5095695;28;20340;-72
2021/06/17 00:18:30;;;;;;;2.22;2.03;;;22.10;69.50;;;;;;5096014;28;20054;-72
2021/06/17 00:20:57;;;;;;;2.40;2.13;;;22.20;69.50;;;;;;5095884;28;20416;-71
2021/06/17 00:23:23;;;;;;;2.30;1.80;;;22.10;69.40;;;;;;5096563;28;20054;-71
2021/06/17 00:25:50;;;;;;;2.72;1.90;;;22.10;69.40;;;;;;5096384;28;20582;-72
2021/06/17 00:28:16;;;;;;;2.08;1.80;;;22.20;69.40;;;;;;5095517;28;20071;-72
2021/06/17 00:30:42;;;;;;;2.10;1.90;;;22.20;69.40;;;;;;5095856;28;20071;-72
2021/06/17 00:33:08;;;;;;;3.00;2.00;;;22.20;69.30;;;;;;5095673;28;20086;-72
2021/06/17 00:35:34;;;;;;;2.85;2.00;;;22.10;69.20;;;;;;5095682;28;20075;-72
2021/06/17 00:38:01;;;;;;;2.53;1.65;;;22.20;69.30;;;;;;5095884;28;20050;-72
2021/06/17 00:40:29;;;;;;;1.83;1.67;;;22.20;69.20;;;;;;5096302;28;20446;-72
2021/06/17 00:42:55;;;;;;;2.13;1.85;;;22.10;69.20;;;;;;5095137;28;20474;-71
2021/06/17 00:45:27;;;;;;;2.47;2.00;;;22.20;69.20;;;;;;5095155;28;20112;-71
2021/06/17 00:47:53;;;;;;;3.08;2.10;;;22.20;69.20;;;;;;5096115;28;20123;-72
2021/06/17 00:50:19;;;;;;;2.83;1.98;;;22.10;69.10;;;;;;5095725;28;20210;-72
2021/06/17 00:52:45;;;;;;;2.55;2.15;;;22.20;69.10;;;;;;5095258;28;20055;-72
2021/06/17 00:55:13;;;;;;;2.22;1.90;;;22.20;69.10;;;;;;5094468;28;20463;-72
2021/06/17 00:57:39;;;;;;;3.05;2.05;;;22.10;69.10;;;;;;5095257;28;20044;-72
2021/06/17 01:00:07;;;;;;;2.92;1.98;;;22.10;69.00;;;;;;5095946;28;20047;-71
2021/06/17 01:02:33;;;;;;;2.55;1.98;;;22.10;69.00;;;;;;5095922;28;20442;-72
2021/06/17 01:04:59;;;;;;;2.63;1.80;;;22.10;69.00;;;;;;5095201;28;20051;-72
2021/06/17 01:07:39;;;;;;;3.17;1.85;;;22.10;69.00;;;;;;5095072;28;20052;-72
2021/06/17 01:10:46;;;;;;;3.60;2.33;;;22.10;69.00;;;;;;5095101;28;20105;-72
2021/06/17 01:13:36;;;;;;;3.17;2.00;;;22.10;69.00;;;;;;5089762;28;20063;-72
2021/06/17 01:16:21;;;;;;;2.88;1.90;;;22.10;69.00;;;;;;5095210;28;20071;-73
2021/06/17 01:18:53;;;;;;;2.88;2.00;;;22.10;69.00;;;;;;5095494;28;20052;-72
2021/06/17 01:21:39;;;;;;;2.50;1.98;;;22.10;69.00;;;;;;5095206;28;20055;-72
2021/06/17 01:24:26;;;;;;;2.20;2.00;;;22.10;68.90;;;;;;5095482;28;20043;-72
2021/06/17 01:27:13;;;;;;;2.88;1.95;;;22.10;69.00;;;;;;5094839;28;20044;-71
2021/06/17 01:29:44;;;;;;;2.30;2.08;;;22.10;69.00;;;;;;5095235;28;20124;-72
2021/06/17 01:32:11;;;;;;;2.60;1.80;;;22.10;69.00;;;;;;5094988;28;20044;-71
2021/06/17 01:34:39;;;;;;;2.15;1.83;;;22.10;69.00;;;;;;5094822;28;20048;-72
2021/06/17 01:37:12;;;;;;;2.88;2.03;;;22.00;68.90;;;;;;5095162;28;20044;-73
2021/06/17 01:39:39;;;;;;;2.30;2.10;;;22.00;68.90;;;;;;5094959;28;20363;-72
2021/06/17 01:42:08;;;;;;;2.28;2.08;;;22.00;68.90;;;;;;5094993;28;20047;-72
2021/06/17 01:44:35;;;;;;;2.30;2.10;;;22.00;68.90;;;;;;5094927;28;20332;-72
2021/06/17 01:47:05;;;;;;;2.20;1.85;;;22.10;68.90;;;;;;5094891;28;20374;-72
2021/06/17 01:49:36;;;;;;;2.25;1.98;;;22.00;68.80;;;;;;5094681;28;20101;-72
2021/06/17 01:52:03;;;;;;;2.20;2.00;;;22.10;68.80;;;;;;5095024;28;20036;-72
2021/06/17 01:54:31;;;;;;;3.03;2.17;;;22.00;68.80;;;;;;5094778;28;20474;-71
2021/06/17 01:57:00;;;;;;;2.83;2.20;;;22.00;68.80;;;;;;5096120;28;20051;-71
2021/06/17 01:59:29;;;;;;;2.17;1.88;;;22.00;68.80;;;;;;5098731;28;20051;-72
2021/06/17 02:01:57;;;;;;;3.20;2.40;;;22.00;68.80;;;;;;5098794;28;20048;-71
2021/06/17 02:04:25;;;;;;;2.20;2.00;;;22.10;68.80;;;;;;5098374;28;20051;-72
2021/06/17 02:06:52;;;;;;;2.35;2.15;;;22.00;68.70;;;;;;5098456;28;20066;-72
2021/06/17 02:09:19;;;;;;;3.15;2.35;;;22.00;68.80;;;;;;5098402;28;20059;-71
2021/06/17 02:11:45;;;;;;;3.08;1.88;;;22.00;68.70;;;;;;5098431;28;20064;-71
2021/06/17 02:14:12;;;;;;;2.55;2.35;;;22.00;68.70;;;;;;5098379;28;20044;-72
2021/06/17 02:16:42;;;;;;;3.38;2.35;;;22.00;68.70;;;;;;5098529;28;20128;-71
2021/06/17 02:19:19;;;;;;;3.05;1.90;;;22.00;68.70;;;;;;5098385;28;20118;-72
2021/06/17 02:21:49;;;;;;;2.40;2.08;;;22.00;68.70;;;;;;5098154;28;20048;-71
2021/06/17 02:24:15;;;;;;;2.53;2.10;;;22.00;68.70;;;;;;5098172;28;20048;-71
2021/06/17 02:26:44;;;;;;;2.28;1.83;;;22.00;68.70;;;;;;5097934;28;20040;-72
2021/06/17 02:29:14;;;;;;;2.47;2.28;;;22.00;68.70;;;;;;5097655;28;20048;-71
2021/06/17 02:31:43;;;;;;;3.22;2.35;;;22.00;68.70;;;;;;5098327;28;20135;-72
2021/06/17 02:34:11;;;;;;;2.63;2.22;;;22.00;68.70;;;;;;5098147;28;20098;-72
2021/06/17 02:36:39;;;;;;;3.30;2.20;;;22.00;68.70;;;;;;5098582;28;20060;-72
2021/06/17 02:39:07;;;;;;;2.47;2.13;;;22.00;68.70;;;;;;5097981;28;20040;-71
2021/06/17 02:41:34;;;;;;;2.60;2.20;;;22.00;68.70;;;;;;5098110;28;20070;-72
2021/06/17 02:44:01;;;;;;;2.55;2.20;;;22.00;68.70;;;;;;5098041;28;20121;-72
2021/06/17 02:46:27;;;;;;;2.70;2.08;;;22.00;68.70;;;;;;5096763;28;20090;-72
2021/06/17 02:48:55;;;;;;;2.38;1.77;;;22.00;68.70;;;;;;5098264;28;20072;-72
2021/06/17 02:51:21;;;;;;;2.92;2.40;;;22.00;68.70;;;;;;5097849;28;20051;-71
2021/06/17 02:53:47;;;;;;;2.33;2.13;;;21.90;68.70;;;;;;5098041;28;20446;-72
2021/06/17 02:56:21;;;;;;;2.80;2.30;;;21.90;68.60;;;;;;5097273;28;20083;-71
2021/06/17 02:59:05;;;;;;;2.88;2.40;;;21.90;69.30;;;;;;5097300;28;20059;-72
2021/06/17 03:01:40;;;;;;;2.50;2.28;;;21.90;68.70;;;;;;5097671;28;20052;-71
2021/06/17 03:04:18;;;;;;;3.53;2.60;;;21.90;68.70;;;;;;5097407;28;20119;-72
2021/06/17 03:06:49;;;;;;;2.70;2.50;;;21.90;68.70;;;;;;5097414;28;20055;-71
2021/06/17 03:09:20;;;;;;;3.60;2.38;;;21.90;68.70;;;;;;5096957;28;20044;-72
2021/06/17 03:11:49;;;;;;;3.10;2.47;;;21.90;68.70;;;;;;5097209;28;20060;-71
2021/06/17 03:14:23;;;;;;;2.92;2.53;;;21.90;68.70;;;;;;5097246;28;20088;-72
2021/06/17 03:16:53;;;;;;;2.35;2.15;;;21.90;68.60;;;;;;5097178;28;20055;-72
2021/06/17 03:19:20;;;;;;;2.70;2.50;;;21.90;68.70;;;;;;5095972;28;20048;-71
2021/06/17 03:21:51;;;;;;;3.38;2.60;;;21.90;68.60;;;;;;5096861;28;20032;-71
2021/06/17 03:24:23;;;;;;;2.72;2.50;;;21.90;68.60;;;;;;5097563;28;20040;-72
2021/06/17 03:26:51;;;;;;;2.80;2.50;;;21.90;68.60;;;;;;5097627;28;20040;-72
2021/06/17 03:29:18;;;;;;;3.38;2.45;;;21.90;68.60;;;;;;5096667;28;20370;-73
2021/06/17 03:31:45;;;;;;;2.70;2.22;;;21.90;68.60;;;;;;5097134;28;20119;-71
2021/06/17 03:34:13;;;;;;;2.70;2.20;;;21.90;68.50;;;;;;5096902;28;20036;-71
2021/06/17 03:36:41;;;;;;;2.50;2.30;;;21.90;68.60;;;;;;5097364;28;20094;-72
2021/06/17 03:39:07;;;;;;;2.80;2.50;;;21.90;68.60;;;;;;5096834;28;20109;-72
2021/06/17 03:41:35;;;;;;;3.47;2.78;;;21.90;68.60;;;;;;5096600;28;20059;-72
2021/06/17 03:44:02;;;;;;;2.97;2.25;;;21.90;68.60;;;;;;5096728;28;20058;-72
2021/06/17 03:46:29;;;;;;;2.97;2.78;;;21.90;68.60;;;;;;5096221;28;20056;-72
2021/06/17 03:48:57;;;;;;;2.50;2.30;;;21.90;68.60;;;;;;5096405;28;20050;-71
2021/06/17 03:51:24;;;;;;;2.88;2.35;;;21.90;68.60;;;;;;5096461;28;20052;-72
2021/06/17 03:53:50;;;;;;;2.72;2.38;;;21.90;68.70;;;;;;5096024;28;20063;-72
2021/06/17 03:56:17;;;;;;;2.80;2.60;;;21.90;68.70;;;;;;5095985;28;20059;-72
2021/06/17 03:58:46;;;;;;;3.30;2.80;;;21.90;68.70;;;;;;5096085;28;20119;-72
2021/06/17 04:01:12;;;;;;;2.80;2.42;;;21.90;68.70;;;;;;5096174;28;20055;-71
2021/06/17 04:03:38;;;;;;;2.92;2.72;;;21.90;68.70;;;;;;5096460;28;20043;-72
2021/06/17 04:06:08;;;;;;;2.95;2.67;;;21.90;68.70;;;;;;5095193;28;20177;-72
2021/06/17 04:08:38;;;;;;;2.58;2.38;;;21.90;68.70;;;;;;5096221;28;20117;-71
2021/06/17 04:11:07;;;;;;;3.55;2.78;;;21.90;68.70;;;;;;5095914;28;20070;-71
2021/06/17 04:13:35;;;;;;;3.65;2.50;;;21.90;68.70;;;;;;5096206;28;20054;-71
2021/06/17 04:16:02;;;;;;;3.50;2.65;;;21.90;68.60;;;;;;5095656;28;20348;-70
2021/06/17 04:18:29;;;;;;;3.28;2.88;;;21.90;68.60;;;;;;5096200;28;20063;-69
2021/06/17 04:20:57;;;;;;;4.95;4.50;;;21.90;68.60;;;;;;5094062;28;20127;-69
2021/06/17 04:23:26;;;;;;;7.20;6.50;;;21.80;68.80;;;;;;5095691;28;20050;-68
2021/06/17 04:25:55;;;;;;;8.68;7.15;;;21.80;69.50;;;;;;5095472;28;20044;-72
2021/06/17 04:28:22;;;;;;;9.80;8.80;;;21.80;70.30;;;;;;5096264;28;20122;-72
2021/06/17 04:30:51;;;;;;;10.05;8.65;;;21.80;70.70;;;;;;5095187;28;20441;-70
2021/06/17 04:33:20;;;;;;;11.95;8.93;;;21.70;71.30;;;;;;5095694;28;20062;-70
2021/06/17 04:35:48;;;;;;;10.75;8.90;;;21.70;71.60;;;;;;5095728;28;20074;-69
2021/06/17 04:38:17;;;;;;;11.65;9.82;;;21.80;71.90;;;;;;5095788;28;20119;-70
2021/06/17 04:40:45;;;;;;;18.60;10.43;;;21.80;72.20;;;;;;5095203;28;20058;-70
2021/06/17 04:43:13;;;;;;;17.50;11.13;;;21.80;72.80;;;;;;5095849;28;20121;-70
2021/06/17 04:45:42;;;;;;;15.38;11.43;;;21.80;72.90;;;;;;5095946;28;20101;-69
2021/06/17 04:48:12;;;;;;;17.65;11.77;;;21.80;73.50;;;;;;5095602;28;20109;-69
2021/06/17 04:50:40;;;;;;;24.48;12.73;;;21.80;73.50;;;;;;5095664;28;20044;-69
2021/06/17 04:53:05;;;;;;;18.20;13.20;;;21.80;73.70;;;;;;5094973;28;20086;-70
2021/06/17 04:55:33;;;;;;;16.33;12.40;;;21.90;74.50;;;;;;5095186;28;20075;-69
2021/06/17 04:57:59;;;;;;;17.23;12.98;;;21.90;74.20;;;;;;5095588;28;20063;-70
2021/06/17 05:00:25;;;;;;;18.70;13.80;;;21.90;74.60;;;;;;5095198;28;20055;-70
2021/06/17 05:02:51;;;;;;;18.65;13.07;;;21.90;74.40;;;;;;5095545;28;20066;-70
2021/06/17 05:05:16;;;;;;;17.90;13.65;;;21.90;74.50;;;;;;5095374;28;20044;-69
2021/06/17 05:12:57;;;;;;;23.98;14.95;;;22.00;74.70;;;;;;5095008;28;20379;-69
2021/06/17 05:15:23;;;;;;;17.15;13.68;;;22.00;75.20;;;;;;5095000;28;20040;-70
2021/06/17 05:17:50;;;;;;;22.08;15.27;;;22.00;75.00;;;;;;5095039;28;20079;-69
2021/06/17 05:20:16;;;;;;;17.60;14.43;;;21.90;75.00;;;;;;5094913;28;20067;-70
2021/06/17 05:22:43;;;;;;;21.95;14.20;;;22.00;75.20;;;;;;5095353;28;20052;-70
2021/06/17 05:25:13;;;;;;;17.40;14.13;;;22.00;75.30;;;;;;5094801;28;20487;-69
2021/06/17 05:27:39;;;;;;;18.27;14.90;;;22.00;75.30;;;;;;5095398;28;20104;-69
2021/06/17 05:30:08;;;;;;;18.98;15.32;;;22.00;75.40;;;;;;5095137;28;20040;-71
2021/06/17 05:32:33;;;;;;;16.48;14.50;;;22.00;75.70;;;;;;5099402;28;20121;-70
2021/06/17 05:35:00;;;;;;;15.80;14.20;;;22.10;75.90;;;;;;5099174;28;20068;-70
2021/06/17 05:37:27;;;;;;;16.70;14.07;;;22.10;75.90;;;;;;5098708;28;20404;-71
2021/06/17 05:39:52;;;;;;;17.42;15.57;;;22.10;76.00;;;;;;5099188;28;20134;-72
2021/06/17 05:42:18;;;;;;;20.05;16.23;;;22.10;76.00;;;;;;5099085;28;20047;-71
2021/06/17 05:44:44;;;;;;;19.98;17.38;;;22.10;76.10;;;;;;5099023;28;20040;-72
2021/06/17 05:47:12;;;;;;;18.77;16.77;;;22.20;76.30;;;;;;5098632;28;20455;-71
2021/06/17 05:49:39;;;;;;;18.88;16.90;;;22.10;76.20;;;;;;5099598;28;20052;-70
2021/06/17 05:52:06;;;;;;;19.27;17.00;;;22.10;76.10;;;;;;5098863;28;20048;-71
2021/06/17 05:54:32;;;;;;;21.38;17.25;;;22.10;76.20;;;;;;5098710;28;20403;-71
2021/06/17 05:56:57;;;;;;;21.38;19.02;;;22.10;76.30;;;;;;5098966;28;20047;-71
2021/06/17 05:59:23;;;;;;;20.05;18.05;;;22.10;76.40;;;;;;5098710;28;20040;-69
2021/06/17 06:01:49;;;;;;;19.98;17.92;;;22.10;76.50;;;;;;5098531;28;20089;-70
2021/06/17 06:04:15;;;;;;;19.73;17.70;;;22.20;76.50;;;;;;5098506;28;20106;-72
2021/06/17 06:06:41;;;;;;;22.35;18.25;;;22.20;76.70;;;;;;5098302;28;20044;-70
2021/06/17 06:09:08;;;;;;;22.15;18.67;;;22.20;76.90;;;;;;5098860;28;20328;-70
2021/06/17 06:11:35;;;;;;;25.13;19.30;;;22.20;76.80;;;;;;5098460;28;20135;-74
2021/06/17 06:14:01;;;;;;;21.67;19.40;;;22.20;77.10;;;;;;5098305;28;20051;-70
2021/06/17 06:16:28;;;;;;;21.92;19.25;;;22.30;77.10;;;;;;5098899;28;20495;-70
2021/06/17 06:18:54;;;;;;;21.75;19.17;;;22.30;76.90;;;;;;5101928;28;20048;-71
2021/06/17 06:21:20;;;;;;;22.08;19.23;;;22.30;76.80;;;;;;5109811;28;20055;-70
2021/06/17 06:23:46;;;;;;;24.42;19.40;;;22.30;76.80;;;;;;5098262;28;20043;-70
2021/06/17 06:26:12;;;;;;;19.45;17.38;;;22.30;76.70;;;;;;5098227;28;20454;-70
2021/06/17 06:28:38;;;;;;;22.77;18.67;;;22.30;76.90;;;;;;5098099;28;20470;-70
2021/06/17 06:31:04;;;;;;;19.15;17.10;;;22.40;76.90;;;;;;5098307;28;20044;-70
2021/06/17 06:33:29;;;;;;;22.35;20.13;;;22.30;76.60;;;;;;5098586;28;20125;-71
2021/06/17 06:35:56;;;;;;;21.92;19.60;;;22.40;76.30;;;;;;5097929;28;20119;-71
2021/06/17 06:38:22;;;;;;;23.50;21.00;;;22.50;76.00;;;;;;5098136;28;20082;-72
2021/06/17 06:40:47;;;;;;;23.27;21.00;;;22.50;76.20;;;;;;5097966;28;20071;-72
2021/06/17 06:43:15;;;;;;;23.52;21.10;;;22.60;75.60;;;;;;5111692;28;20530;-71
2021/06/17 06:45:42;;;;;;;24.58;21.92;;;22.60;75.60;;;;;;5102527;28;20108;-72
2021/06/17 06:48:08;;;;;;;23.52;21.10;;;22.60;75.70;;;;;;5106035;28;20111;-72
2021/06/17 06:50:34;;;;;;;24.45;21.80;;;22.70;75.70;;;;;;5118486;28;20467;-70
2021/06/17 06:53:00;;;;;;;24.90;20.85;;;22.70;75.60;;;;;;5118056;28;20039;-70
2021/06/17 06:55:26;;;;;;;24.30;20.80;;;22.70;75.40;;;;;;5117806;28;20100;-69
2021/06/17 06:57:54;;;;;;;23.58;21.02;;;22.80;75.10;;;;;;5117460;28;20094;-70
2021/06/17 07:00:20;;;;;;;22.42;20.02;;;22.70;74.90;;;;;;5102983;27;20044;-70
2021/06/17 07:02:46;;;;;;;20.65;18.55;;;22.70;74.80;;;;;;5097445;28;20056;-70
2021/06/17 07:05:13;;;;;;;18.50;16.55;;;22.80;75.00;;;;;;5097283;28;20112;-70
2021/06/17 07:07:40;;;;;;;18.05;15.98;;;22.70;75.10;;;;;;5097125;28;20371;-69
2021/06/17 07:10:07;;;;;;;19.85;17.17;;;22.70;75.20;;;;;;5097183;28;20336;-70
2021/06/17 07:12:33;;;;;;;17.45;15.45;;;22.70;75.30;;;;;;5097186;28;20055;-69
2021/06/17 07:14:59;;;;;;;19.15;15.60;;;22.70;75.30;;;;;;5097293;28;20051;-70
2021/06/17 07:17:26;;;;;;;18.65;14.95;;;22.70;75.30;;;;;;5097194;28;20062;-69
2021/06/17 07:19:55;;;;;;;15.70;14.10;;;22.70;75.30;;;;;;5096952;28;20048;-69
2021/06/17 07:22:22;;;;;;;15.60;14.10;;;22.70;75.30;;;;;;5097028;28;20105;-70
2021/06/17 07:24:47;;;;;;;16.15;14.48;;;22.70;75.20;;;;;;5096972;28;20040;-70
2021/06/17 07:27:13;;;;;;;15.13;13.00;;;22.80;75.30;;;;;;5096806;28;20044;-70
2021/06/17 07:29:39;;;;;;;17.15;15.02;;;22.80;75.20;;;;;;5096292;28;20054;-70
2021/06/17 07:32:07;;;;;;;15.77;13.55;;;22.80;75.50;;;;;;5101805;27;20051;-70
2021/06/17 07:34:34;;;;;;;17.75;14.65;;;22.80;75.70;;;;;;5099248;27;20039;-70
2021/06/17 07:37:00;;;;;;;16.50;13.07;;;22.80;75.70;;;;;;5096638;28;20075;-70
2021/06/17 07:39:26;;;;;;;15.02;13.48;;;22.80;75.70;;;;;;5096556;28;20071;-70
2021/06/17 07:41:52;;;;;;;14.73;13.23;;;22.90;75.80;;;;;;5098443;28;20265;-70
2021/06/17 07:44:18;;;;;;;15.35;13.85;;;22.90;75.70;;;;;;5116743;28;20060;-70
2021/06/17 07:46:44;;;;;;;14.52;13.13;;;22.90;75.60;;;;;;5116366;28;20036;-70
2021/06/17 07:49:10;;;;;;;15.40;13.80;;;22.90;75.60;;;;;;5116441;28;20056;-70
2021/06/17 07:51:37;;;;;;;13.98;12.68;;;23.00;75.50;;;;;;5116851;28;20047;-70
2021/06/17 07:54:03;;;;;;;16.48;13.40;;;23.00;75.20;;;;;;5115933;28;20112;-70
2021/06/17 07:56:31;;;;;;;20.33;13.63;;;23.00;75.10;;;;;;5117135;28;20048;-69
2021/06/17 07:58:58;;;;;;;19.70;14.52;;;23.00;75.00;;;;;;5116408;28;20105;-69
2021/06/17 08:01:25;;;;;;;15.60;14.02;;;23.10;74.90;;;;;;5116316;28;20043;-69
2021/06/17 08:03:52;;;;;;;15.95;12.98;;;23.10;74.70;;;;;;5116311;28;20489;-69
2021/06/17 08:06:18;;;;;;;16.77;15.00;;;23.10;74.60;;;;;;5115794;28;20044;-70
2021/06/17 08:08:44;;;;;;;20.42;17.35;;;23.20;74.40;;;;;;5116258;28;20066;-70
2021/06/17 08:11:11;;;;;;;19.67;15.98;;;23.20;74.70;;;;;;5115865;28;20043;-70
2021/06/17 08:13:37;;;;;;;19.80;16.67;;;23.30;74.70;;;;;;5115768;28;20403;-69
2021/06/17 08:16:03;;;;;;;18.73;16.73;;;23.30;74.40;;;;;;5116157;28;20202;-69
2021/06/17 08:18:29;;;;;;;18.17;16.27;;;23.30;74.20;;;;;;5116080;28;20050;-70
2021/06/17 08:20:57;;;;;;;16.25;14.35;;;23.40;73.90;;;;;;5115969;28;20048;-70
2021/06/17 08:23:25;;;;;;;19.35;14.55;;;23.40;74.00;;;;;;5115987;28;20473;-70
2021/06/17 08:25:51;;;;;;;16.10;14.38;;;23.40;74.00;;;;;;5115675;28;20447;-69
2021/06/17 08:28:18;;;;;;;18.02;15.45;;;23.40;73.90;;;;;;5115728;28;20468;-69
2021/06/17 08:30:44;;;;;;;19.08;17.00;;;23.40;74.00;;;;;;5115957;28;20127;-69
2021/06/17 08:33:10;;;;;;;16.65;14.90;;;23.50;73.90;;;;;;5115953;28;20112;-69
2021/06/17 08:35:36;;;;;;;15.60;14.10;;;23.50;74.10;;;;;;5115906;28;20047;-70
2021/06/17 08:38:02;;;;;;;14.82;13.23;;;23.50;74.20;;;;;;5115838;28;20134;-70
2021/06/17 08:40:30;;;;;;;17.48;14.65;;;23.60;73.70;;;;;;5115803;28;20435;-70
2021/06/17 08:42:58;;;;;;;18.70;13.30;;;23.60;73.80;;;;;;5115678;28;20340;-69
2021/06/17 08:45:24;;;;;;;15.00;13.38;;;23.60;74.00;;;;;;5115631;28;20408;-70
2021/06/17 08:47:49;;;;;;;13.52;12.20;;;23.60;74.00;;;;;;5115939;28;20043;-70
2021/06/17 08:50:16;;;;;;;15.20;12.70;;;23.60;74.10;;;;;;5115953;28;20101;-70
2021/06/17 08:52:44;;;;;;;16.25;12.32;;;23.60;74.20;;;;;;5115716;28;20056;-70
2021/06/17 08:55:24;;;;;;;15.07;13.38;;;23.60;74.50;;;;;;5115226;28;20120;-69
2021/06/17 08:57:53;;;;;;;16.60;12.80;;;23.70;74.80;;;;;;5116348;28;20067;-70
2021/06/17 09:00:22;;;;;;;12.30;11.02;;;23.70;74.50;;;;;;5115957;28;20129;-70
2021/06/17 09:03:16;;;;;;;13.98;12.57;;;23.70;74.40;;;;;;5115248;28;20068;-69
2021/06/17 09:05:49;;;;;;;14.73;12.63;;;23.80;73.90;;;;;;5115914;28;20067;-70
2021/06/17 09:08:26;;;;;;;15.98;13.32;;;23.80;73.60;;;;;;5114858;28;20056;-70
2021/06/17 09:10:54;;;;;;;14.48;12.82;;;23.80;73.20;;;;;;5116207;28;20047;-70
2021/06/17 09:13:20;;;;;;;14.50;11.13;;;23.90;73.10;;;;;;5115150;28;20401;-70
2021/06/17 09:15:51;;;;;;;13.23;11.45;;;24.00;73.10;;;;;;5115445;28;20044;-69
2021/06/17 09:18:34;;;;;;;13.45;10.95;;;23.90;73.20;;;;;;5115534;28;20392;-70
2021/06/17 09:21:00;;;;;;;14.80;12.52;;;24.00;73.30;;;;;;5115378;28;20040;-70
2021/06/17 09:23:48;;;;;;;14.02;12.15;;;24.10;73.00;;;;;;5115447;28;20088;-70
2021/06/17 09:26:23;;;;;;;13.98;11.15;;;24.10;72.40;;;;;;5114969;28;20115;-69
2021/06/17 09:29:02;;;;;;;14.80;11.68;;;24.10;72.40;;;;;;5115694;28;20040;-72
2021/06/17 09:31:36;;;;;;;16.42;11.05;;;24.10;71.50;;;;;;5115394;28;20070;-72
2021/06/17 09:34:05;;;;;;;11.02;9.70;;;24.10;70.80;;;;;;5115203;28;20132;-69
2021/06/17 09:36:32;;;;;;;10.45;9.38;;;24.10;70.90;;;;;;5115010;28;20130;-71
2021/06/17 09:39:10;;;;;;;14.50;9.70;;;24.00;71.00;;;;;;5115001;28;20423;-70
2021/06/17 09:41:48;;;;;;;12.02;10.05;;;24.00;71.20;;;;;;5115184;28;20456;-70
2021/06/17 09:44:35;;;;;;;10.80;8.95;;;23.90;71.10;;;;;;5115427;28;20073;-70
2021/06/17 09:47:25;;;;;;;12.15;9.43;;;23.90;71.20;;;;;;5115444;28;20047;-71
2021/06/17 09:49:52;;;;;;;10.88;8.90;;;23.90;71.20;;;;;;5115237;28;20051;-70
2021/06/17 09:52:18;;;;;;;10.35;8.88;;;23.90;71.10;;;;;;5115556;28;20082;-71
2021/06/17 09:54:45;;;;;;;10.43;8.23;;;23.90;70.90;;;;;;5115049;28;20048;-72
2021/06/17 09:57:19;;;;;;;10.25;8.80;;;23.90;71.00;;;;;;5115041;28;20416;-73
2021/06/17 09:59:47;;;;;;;11.60;9.18;;;23.90;71.30;;;;;;5115528;28;20495;-70
2021/06/17 10:02:28;;;;;;;10.82;9.23;;;23.80;71.50;;;;;;5115220;28;20036;-71
2021/06/17 10:05:14;;;;;;;9.63;8.63;;;23.80;71.60;;;;;;5114984;28;20069;-72
2021/06/17 10:07:40;;;;;;;9.95;8.48;;;23.90;71.50;;;;;;5115886;28;20112;-70
2021/06/17 10:10:07;;;;;;;11.40;8.15;;;23.90;72.20;;;;;;5115819;28;20118;-71
2021/06/17 10:12:33;;;;;;;11.93;8.90;;;23.90;72.20;;;;;;5115171;28;20447;-71
2021/06/17 10:15:04;;;;;;;9.82;8.82;;;24.00;72.20;;;;;;5114840;28;20122;-71
2021/06/17 10:17:30;;;;;;;11.13;10.00;;;24.00;72.10;;;;;;5115551;28;20459;-71
2021/06/17 10:19:57;;;;;;;11.32;9.70;;;23.90;71.40;;;;;;5118936;28;20047;-71
2021/06/17 10:22:28;;;;;;;10.05;9.15;;;24.00;70.80;;;;;;5118722;28;20043;-72
2021/06/17 10:24:55;;;;;;;9.93;8.98;;;24.00;70.70;;;;;;5118364;28;20122;-71
2021/06/17 10:27:34;;;;;;;10.70;9.23;;;24.00;70.90;;;;;;5118294;28;20358;-71
2021/06/17 10:30:01;;;;;;;10.85;9.75;;;24.00;70.70;;;;;;5118590;28;20473;-71
2021/06/17 10:32:57;;;;;;;10.88;9.63;;;23.90;70.70;;;;;;5119047;28;20207;-71
2021/06/17 10:35:28;;;;;;;11.52;10.27;;;24.00;70.40;;;;;;5116509;28;20055;-71
2021/06/17 10:37:56;;;;;;;9.60;8.70;;;23.90;70.30;;;;;;5118482;28;20044;-71
2021/06/17 10:40:25;;;;;;;10.63;9.57;;;23.90;70.40;;;;;;5118291;28;20102;-71
2021/06/17 10:42:55;;;;;;;9.20;8.30;;;24.00;70.40;;;;;;5118407;28;20112;-71
2021/06/17 10:45:43;;;;;;;11.48;9.15;;;24.00;70.70;;;;;;5118357;28;20043;-70
2021/06/17 10:48:11;;;;;;;8.77;7.97;;;23.90;71.10;;;;;;5117960;28;20044;-71
2021/06/17 10:51:03;;;;;;;9.63;8.63;;;23.90;70.90;;;;;;5117695;28;20447;-71
2021/06/17 10:53:45;;;;;;;11.95;9.82;;;24.00;70.80;;;;;;5109108;28;20101;-71
2021/06/17 10:56:20;;;;;;;11.30;8.90;;;24.00;70.30;;;;;;5117910;28;20048;-71
2021/06/17 10:58:46;;;;;;;11.23;9.52;;;24.00;70.30;;;;;;5116828;28;20044;-71
2021/06/17 11:01:25;;;;;;;10.55;9.45;;;24.00;70.40;;;;;;5117650;28;20067;-71
2021/06/17 11:04:09;;;;;;;12.68;10.10;;;24.00;70.00;;;;;;5117622;28;20048;-71
2021/06/17 11:06:56;;;;;;;12.27;10.07;;;24.00;69.90;;;;;;5117518;28;20039;-71
2021/06/17 11:09:34;;;;;;;10.10;9.07;;;24.10;70.00;;;;;;5117563;28;20074;-71
2021/06/17 11:12:01;;;;;;;9.98;8.98;;;24.10;69.90;;;;;;5117599;28;20043;-71
2021/06/17 11:14:26;;;;;;;11.30;10.05;;;24.20;70.00;;;;;;5117297;28;20065;-72
2021/06/17 11:16:56;;;;;;;10.68;9.57;;;24.20;70.10;;;;;;5117448;28;20051;-71
2021/06/17 11:19:22;;;;;;;10.98;9.52;;;24.20;69.80;;;;;;5117280;28;20540;-71
2021/06/17 11:21:49;;;;;;;9.70;8.77;;;24.20;69.80;;;;;;5117179;28;20097;-73
2021/06/17 11:24:23;;;;;;;9.32;8.43;;;24.20;70.00;;;;;;5117391;28;20035;-71
2021/06/17 11:26:51;;;;;;;9.73;8.77;;;24.30;70.00;;;;;;5117568;28;20051;-72
2021/06/17 11:29:20;;;;;;;12.68;9.50;;;24.20;70.20;;;;;;5117022;28;20047;-72
2021/06/17 11:31:54;;;;;;;9.18;8.30;;;24.20;70.20;;;;;;5117483;28;20043;-72
2021/06/17 11:34:29;;;;;;;11.40;9.50;;;24.30;70.20;;;;;;5117157;28;20035;-73
2021/06/17 11:36:57;;;;;;;9.02;8.07;;;24.20;70.20;;;;;;5117035;28;20434;-71
2021/06/17 11:39:25;;;;;;;10.10;9.02;;;24.20;70.70;;;;;;5117347;28;20135;-72
2021/06/17 11:41:53;;;;;;;12.10;8.68;;;24.20;70.70;;;;;;5117561;28;20444;-73
2021/06/17 11:44:25;;;;;;;10.13;8.25;;;24.20;70.90;;;;;;5117450;28;20351;-72
2021/06/17 11:47:08;;;;;;;9.65;7.97;;;24.20;70.80;;;;;;5117352;28;20408;-73
2021/06/17 11:49:36;;;;;;;10.40;7.57;;;24.20;70.70;;;;;;5117550;28;20120;-73
2021/06/17 11:52:16;;;;;;;9.68;8.15;;;24.20;71.00;;;;;;5116575;28;20048;-74
2021/06/17 11:54:44;;;;;;;10.82;8.50;;;24.20;71.00;;;;;;5116421;28;20059;-73
2021/06/17 11:57:12;;;;;;;8.52;7.63;;;24.20;71.10;;;;;;5116610;28;20071;-73
2021/06/17 11:59:40;;;;;;;8.13;7.32;;;24.20;71.10;;;;;;5117126;28;20097;-73
2021/06/17 12:02:15;;;;;;;9.70;7.60;;;24.20;71.20;;;;;;5116602;28;20047;-72
2021/06/17 12:04:52;;;;;;;8.68;7.88;;;24.10;71.10;;;;;;5116471;28;20114;-73
2021/06/17 12:07:27;;;;;;;8.80;7.90;;;24.10;71.20;;;;;;5116240;28;20039;-73
2021/06/17 12:10:03;;;;;;;8.48;7.38;;;24.10;71.20;;;;;;5116638;28;20056;-73
2021/06/17 12:12:28;;;;;;;9.02;7.38;;;24.10;71.10;;;;;;5116402;28;20047;-73
2021/06/17 12:14:56;;;;;;;7.63;6.93;;;24.10;71.10;;;;;;5116814;28;20050;-73
2021/06/17 12:17:32;;;;;;;8.32;7.05;;;24.10;71.20;;;;;;5116159;28;20051;-73
2021/06/17 12:20:12;;;;;;;7.72;7.03;;;24.10;71.20;;;;;;5116895;28;20096;-73
2021/06/17 12:22:40;;;;;;;7.65;6.93;;;24.10;71.20;;;;;;5116414;28;20439;-72
2021/06/17 12:25:08;;;;;;;8.07;7.25;;;24.00;71.10;;;;;;5116797;28;20043;-73
2021/06/17 12:27:39;;;;;;;7.95;6.50;;;24.10;71.10;;;;;;5116231;28;20043;-73
2021/06/17 12:30:26;;;;;;;8.23;7.10;;;24.00;71.10;;;;;;5116232;28;20359;-73
2021/06/17 12:32:54;;;;;;;8.68;7.03;;;24.00;71.10;;;;;;5115888;28;20370;-73
2021/06/17 12:35:22;;;;;;;9.85;7.28;;;24.00;71.00;;;;;;5115846;28;20032;-73
2021/06/17 12:37:58;;;;;;;9.50;7.63;;;24.10;71.10;;;;;;5116011;28;20043;-73
2021/06/17 12:40:43;;;;;;;8.98;7.65;;;24.00;71.20;;;;;;5115795;28;20048;-72
2021/06/17 12:43:16;;;;;;;7.65;6.18;;;24.10;71.60;;;;;;5115963;28;20127;-72
2021/06/17 12:45:44;;;;;;;8.30;6.63;;;24.00;71.90;;;;;;5115437;28;20047;-72
2021/06/17 12:48:31;;;;;;;18.55;8.50;;;24.00;71.90;;;;;;5115980;28;20067;-72
2021/06/17 12:54:00;;;;;;;16.75;8.52;;;24.00;72.40;;;;;;5115272;28;20100;-71
2021/06/17 12:56:26;;;;;;;13.38;8.35;;;24.00;72.80;;;;;;5115787;28;20059;-72
2021/06/17 12:58:53;;;;;;;18.63;9.68;;;24.00;73.00;;;;;;5115202;28;20054;-71